createdAt,value
2022-10-22T00:01:04.474Z,95086.63
2022-10-22T00:03:31.827Z,95095.94
2022-10-22T00:05:58.593Z,95096.75
2022-10-22T00:08:26.724Z,95084.56
2022-10-22T00:10:53.462Z,95085.09
2022-10-22T00:13:20.805Z,95084.59
2022-10-22T00:15:47.484Z,95092.31
2022-10-22T00:18:14.147Z,95104.34
2022-10-22T00:20:40.986Z,95096.41
2022-10-22T00:23:07.692Z,95101.25
2022-10-22T00:25:36.022Z,95103.97
2022-10-22T00:28:03.997Z,95099.44
2022-10-22T00:30:30.873Z,95095.13
2022-10-22T00:32:57.473Z,95093.75
2022-10-22T00:35:24.143Z,95094.81
2022-10-22T00:37:50.797Z,95095.97
2022-10-22T00:40:17.571Z,95091.16
2022-10-22T00:42:44.195Z,95095.88
2022-10-22T00:45:10.783Z,95101.06
2022-10-22T00:47:39.386Z,95106.63
2022-10-22T00:50:17.701Z,95106.94
2022-10-22T00:52:44.583Z,95110.75
2022-10-22T00:55:14.891Z,95115.31
2022-10-22T00:57:42.690Z,95115.34
2022-10-22T01:00:09.830Z,95139.03
2022-10-22T01:02:36.739Z,95142.28
2022-10-22T01:05:03.660Z,95149.81
2022-10-22T01:07:30.951Z,95146.94
2022-10-22T01:10:19.354Z,95160.84
2022-10-22T01:13:22.353Z,95170.41
2022-10-22T01:16:10.341Z,95164.16
2022-10-22T01:19:00.745Z,95161.47
2022-10-22T01:21:45.921Z,95143.00
2022-10-22T01:24:52.366Z,95143.91
2022-10-22T01:27:46.221Z,95144.19
2022-10-22T01:30:15.513Z,95156.09
2022-10-22T01:32:57.954Z,95157.28
2022-10-22T01:38:12.785Z,95160.53
2022-10-22T01:40:40.760Z,95160.34
2022-10-22T01:43:09.987Z,95161.97
2022-10-22T01:45:51.181Z,95165.31
2022-10-22T01:48:34.555Z,95158.16
2022-10-22T01:51:25.608Z,95165.75
2022-10-22T01:54:26.075Z,95149.06
2022-10-22T01:57:27.137Z,95136.41
2022-10-22T02:00:04.006Z,95122.78
2022-10-22T02:02:55.616Z,95134.66
2022-10-22T02:05:26.276Z,95129.81
2022-10-22T02:08:09.997Z,95117.81
2022-10-22T02:10:43.880Z,95124.09
2022-10-22T02:13:17.268Z,95116.47
2022-10-22T02:15:49.015Z,95103.91
2022-10-22T02:18:20.712Z,95105.25
2022-10-22T02:20:48.802Z,95119.28
2022-10-22T02:23:16.308Z,95127.31
2022-10-22T02:25:49.535Z,95131.00
2022-10-22T02:28:19.782Z,95135.00
2022-10-22T02:30:56.873Z,95138.56
2022-10-22T02:33:31.278Z,95156.41
2022-10-22T02:36:01.282Z,95156.25
2022-10-22T02:38:30.579Z,95164.03
2022-10-22T02:40:57.666Z,95162.50
2022-10-22T02:43:25.424Z,95169.47
2022-10-22T02:45:52.196Z,95168.78
2022-10-22T02:48:18.873Z,95173.44
2022-10-22T02:50:45.621Z,95167.38
2022-10-22T02:53:13.490Z,95167.81
2022-10-22T02:55:40.378Z,95168.97
2022-10-22T02:58:07.072Z,95172.06
2022-10-22T03:00:33.777Z,95159.50
2022-10-22T03:03:00.519Z,95163.53
2022-10-22T03:05:27.378Z,95169.16
2022-10-22T03:07:53.982Z,95176.97
2022-10-22T03:10:20.596Z,95170.13
2022-10-22T03:12:47.174Z,95177.63
2022-10-22T03:15:14.239Z,95164.84
2022-10-22T03:17:41.052Z,95174.53
2022-10-22T03:20:08.292Z,95163.88
2022-10-22T03:22:39.246Z,95167.84
2022-10-22T03:25:10.930Z,95178.53
2022-10-22T03:27:41.557Z,95178.00
2022-10-22T03:30:09.848Z,95174.81
2022-10-22T03:32:36.657Z,95186.13
2022-10-22T03:35:06.161Z,95185.38
2022-10-22T03:37:34.637Z,95174.00
2022-10-22T03:40:02.282Z,95178.16
2022-10-22T03:42:29.337Z,95175.31
2022-10-22T03:44:56.053Z,95178.38
2022-10-22T03:47:22.692Z,95188.19
2022-10-22T03:49:49.350Z,95197.38
2022-10-22T03:52:16.006Z,95200.41
2022-10-22T03:54:42.865Z,95192.38
2022-10-22T03:57:10.752Z,95201.75
2022-10-22T03:59:40.407Z,95188.03
2022-10-22T04:02:07.027Z,95188.78
2022-10-22T04:04:33.802Z,95203.13
2022-10-22T04:07:00.372Z,95201.56
2022-10-22T04:09:27.019Z,95205.34
2022-10-22T04:11:53.679Z,95200.75
2022-10-22T04:14:40.295Z,95207.22
2022-10-22T04:17:06.905Z,95202.44
2022-10-22T04:19:33.526Z,95216.75
2022-10-22T04:22:01.362Z,95214.50
2022-10-22T04:24:28.110Z,95214.47
2022-10-22T04:26:55.153Z,95223.09
2022-10-22T04:29:21.754Z,95217.16
2022-10-22T04:31:48.343Z,95220.00
2022-10-22T04:34:15.068Z,95207.22
2022-10-22T04:36:42.694Z,95221.22
2022-10-22T04:39:09.304Z,95221.16
2022-10-22T04:41:38.747Z,95230.00
2022-10-22T04:44:07.612Z,95241.13
2022-10-22T04:46:36.344Z,95238.81
2022-10-22T04:49:03.186Z,95236.09
2022-10-22T04:51:30.782Z,95233.53
2022-10-22T04:53:57.379Z,95237.22
2022-10-22T04:56:26.895Z,95240.50
2022-10-22T04:58:57.211Z,95235.63
2022-10-22T05:01:27.077Z,95233.81
2022-10-22T05:03:56.034Z,95234.03
2022-10-22T05:06:24.212Z,95238.25
2022-10-22T05:08:56.293Z,95239.75
2022-10-22T05:11:26.877Z,95242.50
2022-10-22T05:13:55.155Z,95236.16
2022-10-22T05:16:21.746Z,95248.47
2022-10-22T05:18:48.725Z,95237.75
2022-10-22T05:21:19.803Z,95237.97
2022-10-22T05:23:48.863Z,95234.38
2022-10-22T05:26:19.600Z,95240.78
2022-10-22T05:28:48.576Z,95243.50
2022-10-22T05:31:17.279Z,95246.16
2022-10-22T05:33:44.472Z,95247.72
2022-10-22T05:36:14.420Z,95252.38
2022-10-22T05:38:41.006Z,95253.03
2022-10-22T05:41:13.741Z,95252.69
2022-10-22T05:43:40.947Z,95263.44
2022-10-22T05:46:10.565Z,95271.13
2022-10-22T05:48:38.026Z,95268.81
2022-10-22T05:51:11.546Z,95272.59
2022-10-22T05:53:41.310Z,95281.78
2022-10-22T05:56:13.270Z,95281.91
2022-10-22T05:58:39.910Z,95286.59
2022-10-22T06:01:14.532Z,95288.88
2022-10-22T06:03:42.143Z,95295.63
2022-10-22T06:06:22.918Z,95288.28
2022-10-22T06:08:52.216Z,95291.81
2022-10-22T06:11:20.291Z,95290.34
2022-10-22T06:13:47.794Z,95285.25
2022-10-22T06:16:14.931Z,95286.97
2022-10-22T06:18:42.001Z,95282.84
2022-10-22T06:21:11.999Z,95294.09
2022-10-22T06:23:39.786Z,95298.09
2022-10-22T06:26:07.777Z,95301.44
2022-10-22T06:28:35.330Z,95303.91
2022-10-22T06:31:03.491Z,95313.00
2022-10-22T06:33:32.694Z,95324.63
2022-10-22T06:36:13.424Z,95323.25
2022-10-22T06:38:40.317Z,95316.00
2022-10-22T06:41:12.662Z,95322.28
2022-10-22T06:43:40.136Z,95323.94
2022-10-22T06:46:09.277Z,95337.25
2022-10-22T06:48:36.429Z,95342.16
2022-10-22T06:51:05.749Z,95336.31
2022-10-22T06:53:32.686Z,95348.66
2022-10-22T06:55:59.649Z,95343.59
2022-10-22T06:58:26.246Z,95341.66
2022-10-22T07:01:04.811Z,95352.84
2022-10-22T07:03:31.578Z,95353.97
2022-10-22T07:06:03.724Z,95356.72
2022-10-22T07:08:31.031Z,95354.63
2022-10-22T07:11:10.049Z,95352.72
2022-10-22T07:13:36.956Z,95358.56
2022-10-22T07:16:05.224Z,95358.97
2022-10-22T07:18:34.193Z,95362.03
2022-10-22T07:21:03.378Z,95358.22
2022-10-22T07:23:30.710Z,95348.16
2022-10-22T07:25:58.420Z,95350.63
2022-10-22T07:28:25.323Z,95352.38
2022-10-22T07:30:51.948Z,95358.31
2022-10-22T07:33:18.677Z,95358.97
2022-10-22T07:35:45.374Z,95357.53
2022-10-22T07:38:12.239Z,95356.00
2022-10-22T07:40:38.877Z,95357.41
2022-10-22T07:43:06.798Z,95363.97
2022-10-22T07:45:33.535Z,95351.56
2022-10-22T07:48:00.141Z,95362.84
2022-10-22T07:50:27.356Z,95353.06
2022-10-22T07:52:56.076Z,95353.13
2022-10-22T07:55:24.248Z,95353.13
2022-10-22T07:57:52.904Z,95353.34
2022-10-22T08:00:23.072Z,95351.66
2022-10-22T08:02:52.486Z,95351.91
2022-10-22T08:05:19.749Z,95361.50
2022-10-22T08:07:46.559Z,95367.94
2022-10-22T08:10:13.391Z,95376.69
2022-10-22T08:12:41.052Z,95378.00
2022-10-22T08:15:08.540Z,95379.63
2022-10-22T08:17:35.235Z,95383.09
2022-10-22T08:20:01.960Z,95377.47
2022-10-22T08:22:28.618Z,95380.97
2022-10-22T08:24:55.333Z,95380.63
2022-10-22T08:27:21.964Z,95380.41
2022-10-22T08:29:48.564Z,95380.41
2022-10-22T08:32:15.383Z,95381.88
2022-10-22T08:34:42.085Z,95376.03
2022-10-22T08:37:08.915Z,95377.63
2022-10-22T08:39:35.830Z,95371.47
2022-10-22T08:42:30.167Z,95376.53
2022-10-22T08:44:59.473Z,95381.69
2022-10-22T08:47:52.227Z,95391.63
2022-10-22T08:50:27.366Z,95395.69
2022-10-22T08:53:02.086Z,95396.53
2022-10-22T08:55:35.031Z,95406.72
2022-10-22T08:58:41.612Z,95396.81
2022-10-22T09:01:21.171Z,95397.31
2022-10-22T09:04:00.264Z,95388.97
2022-10-22T09:06:30.772Z,95389.81
2022-10-22T09:09:00.186Z,95396.31
2022-10-22T09:11:34.612Z,95393.88
2022-10-22T09:14:03.435Z,95382.97
2022-10-22T09:16:36.102Z,95384.66
2022-10-22T09:19:27.158Z,95387.31
2022-10-22T09:22:02.051Z,95391.41
2022-10-22T09:24:53.223Z,95388.09
2022-10-22T09:27:26.042Z,95391.41
2022-10-22T09:29:52.692Z,95391.09
2022-10-22T09:32:20.382Z,95387.63
2022-10-22T09:34:49.311Z,95396.56
2022-10-22T09:37:19.776Z,95403.47
2022-10-22T09:39:52.652Z,95401.00
2022-10-22T09:42:21.240Z,95403.66
2022-10-22T09:44:59.651Z,95405.94
2022-10-22T09:47:43.032Z,95400.81
2022-10-22T09:50:29.243Z,95400.81
2022-10-22T09:53:05.484Z,95391.19
2022-10-22T09:55:32.456Z,95396.81
2022-10-22T09:58:00.574Z,95394.75
2022-10-22T10:00:28.046Z,95392.19
2022-10-22T10:02:57.562Z,95395.00
2022-10-22T10:05:33.404Z,95395.78
2022-10-22T10:08:13.265Z,95403.19
2022-10-22T10:10:52.249Z,95396.75
2022-10-22T10:13:30.972Z,95396.53
2022-10-22T10:16:09.802Z,95404.56
2022-10-22T10:19:01.083Z,95392.22
2022-10-22T10:21:49.766Z,95399.34
2022-10-22T10:24:28.087Z,95405.09
2022-10-22T10:27:00.444Z,95394.69
2022-10-22T10:32:44.951Z,95402.44
2022-10-22T10:35:40.813Z,95398.03
2022-10-22T10:38:07.357Z,95397.31
2022-10-22T10:40:55.663Z,95390.97
2022-10-22T10:43:38.783Z,95391.25
2022-10-22T10:46:24.855Z,95385.28
2022-10-22T10:49:02.569Z,95386.41
2022-10-22T10:51:40.307Z,95388.28
2022-10-22T10:54:12.614Z,95387.59
2022-10-22T10:56:42.200Z,95385.78
2022-10-22T10:59:37.886Z,95382.06
2022-10-22T11:02:42.892Z,95378.63
2022-10-22T11:05:40.610Z,95381.50
2022-10-22T11:08:21.524Z,95377.31
2022-10-22T11:10:59.775Z,95375.50
2022-10-22T11:13:38.359Z,95373.31
2022-10-22T11:16:13.960Z,95372.97
2022-10-22T11:18:53.450Z,95364.84
2022-10-22T11:21:46.000Z,95361.28
2022-10-22T11:24:15.349Z,95355.66
2022-10-22T11:26:53.012Z,95354.63
2022-10-22T11:29:29.420Z,95349.84
2022-10-22T11:32:01.730Z,95353.94
2022-10-22T11:34:43.272Z,95341.47
2022-10-22T11:37:13.526Z,95348.09
2022-10-22T11:39:53.749Z,95343.06
2022-10-22T11:42:37.102Z,95344.38
2022-10-22T11:45:06.213Z,95346.84
2022-10-22T11:47:51.824Z,95336.91
2022-10-22T11:50:21.627Z,95347.00
2022-10-22T11:53:06.830Z,95340.69
2022-10-22T11:55:46.894Z,95341.97
2022-10-22T11:58:50.719Z,95346.63
2022-10-22T12:01:42.965Z,95347.84
2022-10-22T12:04:17.180Z,95341.25
2022-10-22T12:07:00.917Z,95338.06
2022-10-22T12:09:32.170Z,95336.47
2022-10-22T12:12:14.405Z,95326.84
2022-10-22T12:14:57.132Z,95326.88
2022-10-22T12:17:25.289Z,95325.19
2022-10-22T12:20:02.845Z,95323.81
2022-10-22T12:22:33.205Z,95324.72
2022-10-22T12:25:02.503Z,95320.69
2022-10-22T12:27:38.637Z,95316.16
2022-10-22T12:30:18.707Z,95322.06
2022-10-22T12:32:45.444Z,95309.41
2022-10-22T12:35:20.721Z,95298.97
2022-10-22T12:37:57.669Z,95300.91
2022-10-22T12:40:29.794Z,95300.38
2022-10-22T12:43:20.664Z,95305.75
2022-10-22T12:45:50.351Z,95303.31
2022-10-22T12:48:24.737Z,95303.84
2022-10-22T12:50:59.629Z,95300.13
2022-10-22T12:53:34.772Z,95298.50
2022-10-22T12:56:11.007Z,95300.06
2022-10-22T12:58:42.469Z,95296.53
2022-10-22T13:01:15.945Z,95294.34
2022-10-22T13:03:47.395Z,95290.81
2022-10-22T13:06:18.120Z,95292.72
2022-10-22T13:09:05.923Z,95275.09
2022-10-22T13:11:56.836Z,95289.38
2022-10-22T13:14:39.784Z,95275.84
2022-10-22T13:17:37.024Z,95278.81
2022-10-22T13:20:21.601Z,95283.91
2022-10-22T13:23:05.619Z,95280.56
2022-10-22T13:25:35.793Z,95272.59
2022-10-22T13:28:19.840Z,95279.94
2022-10-22T13:30:59.228Z,95276.13
2022-10-22T13:33:40.675Z,95272.63
2022-10-22T13:36:16.070Z,95273.00
2022-10-22T13:38:44.685Z,95274.75
2022-10-22T13:41:30.881Z,95272.09
2022-10-22T13:43:58.701Z,95275.28
2022-10-22T13:46:27.433Z,95274.63
2022-10-22T13:48:56.645Z,95270.22
2022-10-22T13:51:27.898Z,95268.09
2022-10-22T13:53:54.654Z,95262.97
2022-10-22T13:56:21.923Z,95265.50
2022-10-22T13:58:49.014Z,95278.06
2022-10-22T14:01:20.937Z,95276.72
2022-10-22T14:03:50.435Z,95265.25
2022-10-22T14:06:19.494Z,95275.41
2022-10-22T14:08:49.676Z,95267.97
2022-10-22T14:11:17.091Z,95257.34
2022-10-22T14:13:44.622Z,95255.47
2022-10-22T14:16:21.766Z,95246.72
2022-10-22T14:18:51.948Z,95243.34
2022-10-22T14:21:19.590Z,95242.97
2022-10-22T14:23:47.918Z,95230.31
2022-10-22T14:26:22.906Z,95242.09
2022-10-22T14:29:08.696Z,95237.78
2022-10-22T14:31:38.149Z,95246.44
2022-10-22T14:34:04.739Z,95236.53
2022-10-22T14:36:33.347Z,95227.78
2022-10-22T14:39:00.032Z,95230.09
2022-10-22T14:41:28.860Z,95229.38
2022-10-22T14:43:55.542Z,95232.38
2022-10-22T14:46:22.702Z,95234.19
2022-10-22T14:48:49.288Z,95226.53
2022-10-22T14:51:18.506Z,95224.53
2022-10-22T14:53:46.434Z,95221.97
2022-10-22T14:56:15.452Z,95223.88
2022-10-22T14:58:42.146Z,95227.66
2022-10-22T15:01:09.496Z,95219.50
2022-10-22T15:03:37.301Z,95222.50
2022-10-22T15:06:04.634Z,95224.06
2022-10-22T15:08:31.331Z,95222.78
2022-10-22T15:11:07.174Z,95220.50
2022-10-22T15:13:34.504Z,95217.63
2022-10-22T15:16:05.179Z,95222.41
2022-10-22T15:18:31.958Z,95219.16
2022-10-22T15:21:02.024Z,95213.88
2022-10-22T15:23:29.617Z,95224.09
2022-10-22T15:25:56.561Z,95221.31
2022-10-22T15:28:24.284Z,95220.72
2022-10-22T15:30:59.321Z,95223.22
2022-10-22T15:33:27.756Z,95215.91
2022-10-22T15:35:55.672Z,95216.47
2022-10-22T15:38:26.676Z,95217.78
2022-10-22T15:41:05.648Z,95217.84
2022-10-22T15:43:33.771Z,95223.88
2022-10-22T15:46:13.368Z,95224.47
2022-10-22T15:48:40.979Z,95216.31
2022-10-22T15:51:13.184Z,95221.44
2022-10-22T15:53:40.476Z,95226.16
2022-10-22T15:56:07.945Z,95218.06
2022-10-22T15:58:34.671Z,95215.63
2022-10-22T16:01:07.199Z,95207.31
2022-10-22T16:03:34.985Z,95214.19
2022-10-22T16:06:02.336Z,95204.66
2022-10-22T16:08:31.338Z,95200.56
2022-10-22T16:10:58.461Z,95202.88
2022-10-22T16:13:25.956Z,95203.03
2022-10-22T16:15:53.826Z,95197.47
2022-10-22T16:18:20.962Z,95207.19
2022-10-22T16:20:47.816Z,95207.25
2022-10-22T16:23:15.570Z,95200.00
2022-10-22T16:25:42.572Z,95208.31
2022-10-22T16:28:11.322Z,95205.63
2022-10-22T16:30:39.065Z,95211.25
2022-10-22T16:33:07.241Z,95215.81
2022-10-22T16:35:34.376Z,95220.34
2022-10-22T16:38:01.047Z,95215.03
2022-10-22T16:40:27.742Z,95221.34
2022-10-22T16:42:54.408Z,95214.31
2022-10-22T16:45:21.049Z,95212.00
2022-10-22T16:47:47.638Z,95220.41
2022-10-22T16:50:14.778Z,95218.75
2022-10-22T16:52:41.363Z,95215.59
2022-10-22T16:55:08.452Z,95218.94
2022-10-22T16:57:36.087Z,95219.88
2022-10-22T17:00:05.548Z,95224.06
2022-10-22T17:02:32.209Z,95231.41
2022-10-22T17:04:58.980Z,95241.84
2022-10-22T17:07:25.580Z,95248.81
2022-10-22T17:09:52.319Z,95248.06
2022-10-22T17:12:18.959Z,95240.78
2022-10-22T17:14:45.556Z,95239.66
2022-10-22T17:17:12.165Z,95248.38
2022-10-22T17:19:38.799Z,95248.13
2022-10-22T17:22:08.249Z,95248.94
2022-10-22T17:24:34.829Z,95246.88
2022-10-22T17:27:01.476Z,95247.78
2022-10-22T17:29:28.070Z,95243.53
2022-10-22T17:31:54.904Z,95257.53
2022-10-22T17:34:21.597Z,95252.94
2022-10-22T17:36:48.183Z,95249.31
2022-10-22T17:39:17.435Z,95255.72
2022-10-22T17:41:44.037Z,95256.13
2022-10-22T17:44:12.663Z,95255.53
2022-10-22T17:46:39.286Z,95259.88
2022-10-22T17:49:12.309Z,95255.66
2022-10-22T17:51:38.906Z,95265.72
2022-10-22T17:54:08.822Z,95260.31
2022-10-22T17:56:36.912Z,95255.28
2022-10-22T17:59:03.570Z,95258.81
2022-10-22T18:01:34.008Z,95260.19
2022-10-22T18:04:07.090Z,95268.97
2022-10-22T18:06:34.700Z,95264.69
2022-10-22T18:09:05.203Z,95273.75
2022-10-22T18:11:31.881Z,95280.31
2022-10-22T18:13:58.845Z,95273.91
2022-10-22T18:16:26.477Z,95266.59
2022-10-22T18:18:55.468Z,95271.88
2022-10-22T18:21:24.390Z,95275.88
2022-10-22T18:23:51.076Z,95275.81
2022-10-22T18:26:20.338Z,95258.41
2022-10-22T18:28:49.492Z,95263.94
2022-10-22T18:31:19.727Z,95264.72
2022-10-22T18:33:47.538Z,95262.47
2022-10-22T18:36:20.177Z,95267.72
2022-10-22T18:38:51.145Z,95270.31
2022-10-22T18:41:18.588Z,95277.63
2022-10-22T18:43:50.331Z,95274.41
2022-10-22T18:46:16.951Z,95276.78
2022-10-22T18:48:43.531Z,95273.03
2022-10-22T18:51:10.201Z,95284.69
2022-10-22T18:53:37.791Z,95272.31
2022-10-22T18:56:06.286Z,95277.81
2022-10-22T18:58:39.521Z,95280.34
2022-10-22T19:01:09.434Z,95289.38
2022-10-22T19:03:36.591Z,95279.47
2022-10-22T19:06:03.623Z,95270.72
2022-10-22T19:08:30.231Z,95280.16
2022-10-22T19:10:56.832Z,95279.13
2022-10-22T19:13:23.579Z,95276.84
2022-10-22T19:15:50.156Z,95271.84
2022-10-22T19:18:16.770Z,95272.97
2022-10-22T19:20:47.377Z,95269.44
2022-10-22T19:23:18.470Z,95275.19
2022-10-22T19:25:47.418Z,95272.47
2022-10-22T19:28:14.022Z,95276.19
2022-10-22T19:30:41.667Z,95283.03
2022-10-22T19:33:08.276Z,95281.34
2022-10-22T19:35:36.683Z,95281.00
2022-10-22T19:38:03.338Z,95279.66
2022-10-22T19:40:29.911Z,95274.88
2022-10-22T19:42:56.610Z,95273.09
2022-10-22T19:45:23.182Z,95274.34
2022-10-22T19:47:49.850Z,95265.63
2022-10-22T19:50:16.467Z,95260.19
2022-10-22T19:52:43.371Z,95260.34
2022-10-22T19:55:10.358Z,95269.94
2022-10-22T19:57:36.987Z,95254.06
2022-10-22T20:00:04.897Z,95261.41
2022-10-22T20:02:31.523Z,95268.97
2022-10-22T20:04:58.176Z,95268.22
2022-10-22T20:07:25.071Z,95274.31
2022-10-22T20:09:51.714Z,95269.53
2022-10-22T20:12:18.367Z,95268.34
2022-10-22T20:14:45.096Z,95270.41
2022-10-22T20:17:13.057Z,95269.34
2022-10-22T20:19:39.848Z,95271.22
2022-10-22T20:22:06.540Z,95269.50
2022-10-22T20:24:33.897Z,95268.41
2022-10-22T20:27:00.623Z,95279.41
2022-10-22T20:29:27.308Z,95284.28
2022-10-22T20:31:53.945Z,95290.41
2022-10-22T20:34:21.127Z,95301.44
2022-10-22T20:36:47.797Z,95293.66
2022-10-22T20:39:15.801Z,95283.16
2022-10-22T20:41:42.548Z,95284.81
2022-10-22T20:44:15.758Z,95285.56
2022-10-22T20:46:42.742Z,95291.19
2022-10-22T20:49:12.823Z,95293.47
2022-10-22T20:51:39.626Z,95291.31
2022-10-22T20:54:07.771Z,95293.59
2022-10-22T20:56:39.995Z,95282.28
2022-10-22T20:59:08.354Z,95292.19
2022-10-22T21:01:39.448Z,95290.63
2022-10-22T21:04:07.351Z,95294.09
2022-10-22T21:06:34.585Z,95293.66
2022-10-22T21:09:02.794Z,95298.22
2022-10-22T21:11:29.429Z,95299.78
2022-10-22T21:13:56.046Z,95294.56
2022-10-22T21:16:22.932Z,95294.13
2022-10-22T21:18:49.542Z,95297.38
2022-10-22T21:21:16.110Z,95303.66
2022-10-22T21:23:42.743Z,95303.22
2022-10-22T21:26:09.347Z,95297.59
2022-10-22T21:28:37.624Z,95292.59
2022-10-22T21:31:06.854Z,95302.00
2022-10-22T21:33:38.726Z,95302.09
2022-10-22T21:36:06.956Z,95291.81
2022-10-22T21:38:34.655Z,95302.13
2022-10-22T21:41:08.333Z,95298.13
2022-10-22T21:43:38.299Z,95308.13
2022-10-22T21:46:20.094Z,95310.56
2022-10-22T21:48:47.423Z,95310.38
2022-10-22T21:51:17.307Z,95308.59
2022-10-22T21:53:44.899Z,95313.69
2022-10-22T21:56:21.618Z,95304.41
2022-10-22T21:58:48.424Z,95299.72
2022-10-22T22:01:16.446Z,95300.84
2022-10-22T22:03:46.350Z,95295.72
2022-10-22T22:06:13.618Z,95293.75
2022-10-22T22:08:40.425Z,95298.22
2022-10-22T22:11:10.747Z,95300.28
2022-10-22T22:13:37.618Z,95297.84
2022-10-22T22:16:07.670Z,95300.41
2022-10-22T22:18:36.163Z,95294.72
2022-10-22T22:21:06.322Z,95298.03
2022-10-22T22:23:33.772Z,95303.78
2022-10-22T22:26:01.731Z,95299.59
2022-10-22T22:28:33.039Z,95296.25
2022-10-22T22:31:00.331Z,95296.28
2022-10-22T22:33:27.976Z,95298.69
2022-10-22T22:35:58.675Z,95296.84
2022-10-22T22:38:25.328Z,95300.34
2022-10-22T22:40:52.326Z,95284.06
2022-10-22T22:43:18.951Z,95284.91
2022-10-22T22:45:45.659Z,95282.81
2022-10-22T22:48:12.242Z,95282.84
2022-10-22T22:50:38.896Z,95282.53
2022-10-22T22:53:05.518Z,95275.50
2022-10-22T22:55:32.171Z,95288.06
2022-10-22T22:57:58.850Z,95272.41
2022-10-22T23:00:25.634Z,95275.50
2022-10-22T23:02:55.608Z,95275.63
2022-10-22T23:05:22.235Z,95271.97
2022-10-22T23:07:48.831Z,95282.81
2022-10-22T23:10:15.607Z,95281.81
2022-10-22T23:12:42.389Z,95285.50
2022-10-22T23:15:09.565Z,95279.13
2022-10-22T23:20:08.327Z,95261.97
2022-10-22T23:22:34.900Z,95272.22
2022-10-22T23:25:01.767Z,95272.97
2022-10-22T23:27:30.659Z,95275.66
2022-10-22T23:29:57.309Z,95280.16
2022-10-22T23:32:23.921Z,95282.41
2022-10-22T23:34:50.539Z,95277.88
2022-10-22T23:37:17.187Z,95276.34
2022-10-22T23:39:43.767Z,95268.66
2022-10-22T23:42:10.621Z,95267.59
2022-10-22T23:44:37.202Z,95272.19
2022-10-22T23:47:03.796Z,95266.91
2022-10-22T23:49:30.388Z,95262.53
2022-10-22T23:51:56.965Z,95267.34
2022-10-22T23:54:23.526Z,95269.75
2022-10-22T23:56:50.086Z,95264.47
2022-10-22T23:59:16.692Z,95260.56
